weather.gov     
National Weather Service

Terminal Aerodrome Forecast
NWS Homepage
This page is being discontinued on March 12, 2014.
The same data is available at this site. Please update your bookmarks.
Thank you, and we apologize for the inconvenience.
Please send an email to SR-SRH.Webmaster@noaa.gov with any concerns.


Current Version
Previous Version:    01  02  03  04  05  06  07  08  09  10  11  12  13  14  15  16  17  18  19  20  21  22  23  24  25  26  27  28  29  
[Printable]
835
FTUS44 KCRP 180900 AAA
TAFVCT
TAF AMD
KVCT 180922Z 1809/1906 VRB04KT 4SM BR VCSH BKN025
      TEMPO 1810/1813 3SM -RA BR BKN015
     FM181500 VRB05KT P6SM VCSH FEW008 OVC020
     FM181800 36005KT P6SM BKN035
      TEMPO 1818/1821 -TSRA BKN010CB
     FM190100 14008KT P6SM OVC015=


U.S. Dept. of Commerce
NOAA National Weather Service
1325 East West Highway
Silver Spring, MD 20910
E-mail: w-nws.webmaster@noaa.gov
Page last modified: May 16, 2007
NATIONAL WEATHER SERVICE: for Safety, for Work, for Fun - FOR LIFE